Time;durP1;ratioP1;P1;durP2;ratioP2;P2;SDS_P1;SDS_P2;PMS_P1;PMS_P2;Temp;Humidity;BMP_temperature;BMP_pressure;BME280_temperature;BME280_humidity;BME280_pressure;Samples;Min_cycle;Max_cycle;Signal;HPM_P1;HPM_P2
2023/11/13 00:01:40;;;;;;;3.27;1.07;;;;;;;-0.75;100.00;97289.06;6217134;28;20220;-51
2023/11/13 00:04:43;;;;;;;2.40;0.87;;;;;;;-0.76;100.00;97287.44;6217681;28;20205;-53
2023/11/13 00:07:45;;;;;;;1.20;0.93;;;;;;;-0.71;100.00;97297.38;6219191;28;20676;-50
2023/11/13 00:10:47;;;;;;;0.97;0.80;;;;;;;-0.71;100.00;97302.59;6218869;28;20223;-50
2023/11/13 00:13:49;;;;;;;1.20;0.83;;;;;;;-0.68;100.00;97302.25;6217978;28;20188;-50
2023/11/13 00:16:51;;;;;;;1.53;0.90;;;;;;;-0.67;100.00;97302.06;6218295;28;20211;-49
2023/11/13 00:19:54;;;;;;;2.13;0.80;;;;;;;-0.65;100.00;97318.38;6217157;28;20200;-52
2023/11/13 00:22:56;;;;;;;0.97;0.80;;;;;;;-0.60;100.00;97325.69;6217075;28;20690;-48
2023/11/13 00:25:58;;;;;;;1.00;0.90;;;;;;;-0.56;100.00;97325.16;6218429;28;20184;-50
2023/11/13 00:29:01;;;;;;;1.37;1.10;;;;;;;-0.49;100.00;97333.09;6219115;28;20200;-50
2023/11/13 00:32:04;;;;;;;1.30;1.00;;;;;;;-0.44;100.00;97338.63;6215131;28;20232;-50
2023/11/13 00:35:06;;;;;;;1.60;1.00;;;;;;;-0.40;100.00;97342.47;6218347;28;20200;-53
2023/11/13 00:38:08;;;;;;;2.07;1.07;;;;;;;-0.37;100.00;97347.34;6217624;28;20778;-50
2023/11/13 00:41:12;;;;;;;1.27;1.10;;;;;;;-0.32;100.00;97354.66;6216614;28;20201;-50
2023/11/13 00:44:14;;;;;;;2.00;1.30;;;;;;;-0.26;100.00;97359.97;6217962;28;20215;-49
2023/11/13 00:47:17;;;;;;;1.77;1.10;;;;;;;-0.20;100.00;97357.63;6218327;28;20197;-51
2023/11/13 00:50:21;;;;;;;1.97;1.37;;;;;;;-0.13;100.00;97361.16;6218989;28;20679;-49
2023/11/13 00:53:24;;;;;;;2.37;1.43;;;;;;;-0.07;100.00;97371.72;6215435;28;20201;-48
2023/11/13 00:56:26;;;;;;;1.77;1.27;;;;;;;-0.14;100.00;97343.84;6217617;28;20251;-52
2023/11/13 00:59:28;;;;;;;1.93;1.37;;;;;;;0.08;100.00;97384.78;6218009;28;20197;-50
2023/11/13 01:02:30;;;;;;;1.90;1.40;;;;;;;-0.21;100.00;97337.69;6217667;28;20223;-49
2023/11/13 01:05:33;;;;;;;1.20;1.10;;;;;;;0.21;100.00;97382.34;6218014;28;20208;-50
2023/11/13 01:08:36;;;;;;;3.47;1.40;;;;;;;0.19;100.00;97381.69;6215825;28;20188;-49
2023/11/13 01:11:38;;;;;;;2.97;1.60;;;;;;;0.36;100.00;97394.59;6215089;28;20872;-52
2023/11/13 01:14:40;;;;;;;3.23;1.20;;;;;;;0.45;100.00;97401.34;6218051;28;20275;-49
2023/11/13 01:17:43;;;;;;;1.67;1.40;;;;;;;0.56;100.00;97405.31;6217178;28;20205;-52
2023/11/13 01:20:46;;;;;;;3.60;1.83;;;;;;;0.74;100.00;97403.09;6217392;28;20202;-49
2023/11/13 01:23:48;;;;;;;3.17;2.47;;;;;;;0.93;100.00;97412.13;6218781;28;20210;-47
2023/11/13 01:26:50;;;;;;;3.67;2.30;;;;;;;1.09;100.00;97409.28;6216415;28;20251;-48
2023/11/13 01:29:52;;;;;;;5.67;4.30;;;;;;;1.73;100.00;97406.53;6215528;28;20215;-51
2023/11/13 01:32:54;;;;;;;9.03;4.33;;;;;;;2.18;100.00;97419.31;6216377;28;20557;-51
2023/11/13 01:35:56;;;;;;;6.10;4.80;;;;;;;3.03;100.00;97417.97;6217929;28;20281;-52
2023/11/13 01:38:59;;;;;;;4.47;3.20;;;;;;;3.46;100.00;97405.25;6216979;28;20198;-51
2023/11/13 01:42:01;;;;;;;2.87;2.43;;;;;;;3.41;100.00;97397.13;6215144;28;20596;-49
2023/11/13 01:45:03;;;;;;;4.77;2.60;;;;;;;3.56;100.00;97410.09;6216923;28;20227;-50
2023/11/13 01:48:05;;;;;;;6.50;4.70;;;;;;;3.64;100.00;97415.13;6214889;28;20340;-51
2023/11/13 01:51:08;;;;;;;4.53;2.90;;;;;;;3.69;100.00;97401.34;6215785;28;20200;-49
2023/11/13 01:54:12;;;;;;;3.10;2.10;;;;;;;3.60;100.00;97395.50;6215378;28;20586;-54
2023/11/13 01:57:14;;;;;;;2.73;2.40;;;;;;;3.48;100.00;97400.56;6217152;28;20195;-51
2023/11/13 02:00:17;;;;;;;4.37;2.60;;;;;;;3.53;100.00;97392.06;6231400;28;20220;-53
2023/11/13 02:03:20;;;;;;;5.00;4.27;;;;;;;3.51;100.00;97350.13;6214916;28;20209;-52
2023/11/13 02:06:22;;;;;;;6.07;4.10;;;;;;;3.85;100.00;97378.03;6218980;28;20211;-52
2023/11/13 02:09:26;;;;;;;4.67;4.00;;;;;;;3.92;100.00;97364.84;6219333;28;20737;-53
2023/11/13 02:12:28;;;;;;;6.10;3.53;;;;;;;4.00;100.00;97366.44;6218794;28;20178;-50
2023/11/13 02:15:31;;;;;;;5.20;3.50;;;;;;;4.04;100.00;97359.72;6220203;28;20197;-51
2023/11/13 02:18:36;;;;;;;4.77;3.63;;;;;;;4.23;100.00;97361.47;6219817;28;20200;-51
2023/11/13 02:21:38;;;;;;;4.87;3.10;;;;;;;4.27;100.00;97389.06;6219677;28;20247;-51
2023/11/13 02:24:40;;;;;;;4.10;3.13;;;;;;;4.40;100.00;97388.19;6221225;28;20220;-51
2023/11/13 02:27:46;;;;;;;4.03;3.37;;;;;;;4.45;100.00;97391.03;6220138;28;20680;-53
2023/11/13 02:30:48;;;;;;;2.87;2.43;;;;;;;4.44;100.00;97391.25;6219815;28;20230;-52
2023/11/13 02:33:50;;;;;;;6.17;2.70;;;;;;;4.35;100.00;97395.94;6219608;28;20235;-53
2023/11/13 02:36:53;;;;;;;5.07;2.70;;;;;;;4.27;100.00;97399.59;6236461;28;20213;-54
2023/11/13 02:39:55;;;;;;;4.30;2.43;;;;;;;4.42;100.00;97382.72;6221350;28;20543;-51
2023/11/13 02:42:57;;;;;;;4.03;3.00;;;;;;;4.36;100.00;97385.16;6218604;28;20207;-53
2023/11/13 02:45:59;;;;;;;3.90;2.73;;;;;;;4.45;100.00;97396.28;6217525;28;20655;-51
2023/11/13 02:49:02;;;;;;;3.70;2.10;;;;;;;4.39;100.00;97389.22;6221267;28;20197;-52
2023/11/13 02:52:04;;;;;;;5.63;2.73;;;;;;;4.32;100.00;97380.50;6223131;28;20189;-50
2023/11/13 02:55:07;;;;;;;4.37;2.57;;;;;;;4.28;100.00;97374.03;6220969;28;20203;-54
2023/11/13 02:58:09;;;;;;;2.37;2.17;;;;;;;4.23;100.00;97384.41;6220405;28;20216;-52
2023/11/13 03:01:11;;;;;;;3.03;2.50;;;;;;;4.23;100.00;97382.56;6220319;28;20220;-52
2023/11/13 03:04:14;;;;;;;3.90;2.70;;;;;;;4.21;100.00;97386.44;6220409;28;20218;-53
2023/11/13 03:07:16;;;;;;;2.80;2.60;;;;;;;4.19;100.00;97384.03;6219059;28;20210;-53
2023/11/13 03:10:18;;;;;;;3.27;2.87;;;;;;;4.19;100.00;97378.75;6219015;28;20200;-53
2023/11/13 03:13:21;;;;;;;3.90;2.30;;;;;;;4.21;100.00;97381.19;6218762;28;20217;-52
2023/11/13 03:16:23;;;;;;;2.37;2.17;;;;;;;4.16;100.00;97376.53;6220315;28;20200;-52
2023/11/13 03:19:25;;;;;;;2.70;2.37;;;;;;;4.14;100.00;97383.84;6218831;28;20665;-52
2023/11/13 03:22:27;;;;;;;3.93;2.63;;;;;;;4.15;100.00;97380.19;6219418;28;20592;-52
2023/11/13 03:25:30;;;;;;;3.13;2.30;;;;;;;4.13;100.00;97380.38;6222784;28;20619;-50
2023/11/13 03:28:32;;;;;;;3.63;2.80;;;;;;;4.14;100.00;97374.09;6217402;28;20201;-52
2023/11/13 03:31:34;;;;;;;2.80;2.37;;;;;;;4.14;100.00;97368.84;6215979;28;20290;-51
2023/11/13 03:34:36;;;;;;;3.97;2.27;;;;;;;4.12;100.00;97370.84;6219916;28;20670;-53
2023/11/13 03:37:39;;;;;;;2.60;2.30;;;;;;;4.11;100.00;97385.06;6219791;28;20193;-51
2023/11/13 03:40:41;;;;;;;2.20;2.00;;;;;;;4.10;100.00;97382.63;6219190;28;20197;-53
2023/11/13 03:43:43;;;;;;;2.80;2.40;;;;;;;4.05;100.00;97396.44;6220747;28;20217;-54
2023/11/13 03:46:45;;;;;;;2.13;1.93;;;;;;;4.04;100.00;97392.19;6220236;28;20236;-52
2023/11/13 03:49:48;;;;;;;2.30;1.90;;;;;;;3.61;100.00;97332.09;6218017;28;20201;-52
2023/11/13 03:52:51;;;;;;;2.40;2.00;;;;;;;3.95;100.00;97389.97;6219348;28;20717;-52
2023/11/13 03:55:54;;;;;;;3.13;1.67;;;;;;;3.93;100.00;97381.44;6209649;28;20210;-53
2023/11/13 03:58:56;;;;;;;1.63;1.53;;;;;;;3.80;100.00;97372.56;6219906;28;20196;-52
2023/11/13 04:02:00;;;;;;;2.80;2.33;;;;;;;3.88;100.00;97384.69;6218946;28;20200;-52
2023/11/13 04:05:03;;;;;;;2.93;2.10;;;;;;;3.83;100.00;97387.97;6219292;28;20775;-51
2023/11/13 04:08:05;;;;;;;3.37;2.07;;;;;;;3.83;100.00;97392.41;6206401;28;20198;-52
2023/11/13 04:11:07;;;;;;;3.23;2.43;;;;;;;3.81;100.00;97389.19;6218876;28;20685;-51
2023/11/13 04:14:13;;;;;;;2.97;2.40;;;;;;;3.78;100.00;97390.41;6217186;28;20922;-52
2023/11/13 04:17:15;;;;;;;4.30;2.20;;;;;;;3.70;100.00;97379.28;6219112;28;20574;-49
2023/11/13 04:20:21;;;;;;;3.17;2.30;;;;;;;3.70;100.00;97389.81;6220935;28;20351;-50
2023/11/13 04:23:27;;;;;;;2.60;2.27;;;;;;;3.66;100.00;97396.50;6217477;28;20693;-51
2023/11/13 04:26:29;;;;;;;2.20;2.00;;;;;;;3.59;100.00;97402.56;6217623;28;20284;-49
2023/11/13 04:29:31;;;;;;;3.23;2.23;;;;;;;3.54;100.00;97398.94;6218382;28;20197;-50
2023/11/13 04:32:33;;;;;;;2.93;2.37;;;;;;;3.50;100.00;97395.13;6217628;28;20237;-51
2023/11/13 04:35:35;;;;;;;3.60;2.43;;;;;;;3.46;100.00;97414.97;6217029;28;20194;-52
2023/11/13 04:38:40;;;;;;;2.40;2.10;;;;;;;3.40;100.00;97428.91;6218431;28;20196;-51
2023/11/13 04:41:43;;;;;;;2.70;2.33;;;;;;;3.26;100.00;97396.53;6216919;28;20695;-51
2023/11/13 04:44:45;;;;;;;2.93;2.50;;;;;;;3.22;100.00;97427.72;6217936;28;20204;-50
2023/11/13 04:47:47;;;;;;;2.33;2.00;;;;;;;3.16;100.00;97417.19;6218232;28;20221;-52
2023/11/13 04:50:49;;;;;;;2.40;2.20;;;;;;;3.10;100.00;97429.28;6217982;28;20706;-52
2023/11/13 04:53:52;;;;;;;2.60;2.37;;;;;;;3.04;100.00;97416.94;6218251;28;20557;-51
2023/11/13 04:56:55;;;;;;;2.43;1.97;;;;;;;3.00;100.00;97426.25;6218425;28;20587;-49
2023/11/13 04:59:57;;;;;;;2.63;2.00;;;;;;;2.94;100.00;97425.22;6217071;28;20204;-50
2023/11/13 05:02:59;;;;;;;2.50;2.00;;;;;;;2.90;100.00;97454.75;6217465;28;20212;-50
2023/11/13 05:06:02;;;;;;;2.47;2.00;;;;;;;2.87;100.00;97455.16;6232644;28;20204;-52
2023/11/13 05:09:05;;;;;;;1.60;1.50;;;;;;;2.82;100.00;97438.16;6217990;28;20673;-53
2023/11/13 05:12:07;;;;;;;1.53;1.43;;;;;;;2.78;100.00;97442.19;6216009;28;20621;-49
2023/11/13 05:15:13;;;;;;;1.40;1.30;;;;;;;2.74;100.00;97440.97;6217041;28;20189;-53
2023/11/13 05:18:16;;;;;;;1.97;1.33;;;;;;;2.72;100.00;97469.28;6218269;28;20205;-49
2023/11/13 05:21:19;;;;;;;2.30;1.63;;;;;;;2.68;100.00;97464.63;6217365;28;20272;-52
2023/11/13 05:24:21;;;;;;;2.40;1.80;;;;;;;2.67;100.00;97463.00;6217810;28;20695;-54
2023/11/13 05:27:23;;;;;;;1.57;1.47;;;;;;;2.65;100.00;97447.41;6217578;28;20241;-51
2023/11/13 05:30:25;;;;;;;4.10;1.40;;;;;;;2.62;100.00;97433.84;6215924;28;20727;-48
2023/11/13 05:33:28;;;;;;;1.63;1.50;;;;;;;2.60;100.00;97444.53;6217267;28;20575;-48
2023/11/13 05:36:31;;;;;;;1.73;1.43;;;;;;;2.53;100.00;97447.16;6217042;28;20196;-51
2023/11/13 05:39:33;;;;;;;1.27;1.17;;;;;;;2.48;100.00;97446.94;6216779;28;20211;-53
2023/11/13 05:42:35;;;;;;;1.50;1.20;;;;;;;2.47;100.00;97470.81;6220800;28;20224;-53
2023/11/13 05:45:37;;;;;;;1.43;1.00;;;;;;;2.51;100.00;97477.28;6220897;28;20192;-52
2023/11/13 05:48:39;;;;;;;1.20;1.00;;;;;;;2.49;100.00;97474.03;6222019;28;20223;-52
2023/11/13 05:51:42;;;;;;;0.67;0.67;;;;;;;2.51;100.00;97464.13;6221066;28;20219;-53
2023/11/13 05:54:44;;;;;;;1.20;1.10;;;;;;;2.55;100.00;97470.63;6219713;28;20207;-54
2023/11/13 05:57:46;;;;;;;2.77;1.27;;;;;;;2.58;100.00;97473.69;6221427;28;20203;-52
2023/11/13 06:00:48;;;;;;;1.63;0.90;;;;;;;2.65;100.00;97481.59;6223508;28;20692;-47
2023/11/13 06:03:51;;;;;;;0.90;0.87;;;;;;;2.72;100.00;97477.19;6217395;28;20215;-49
2023/11/13 06:06:53;;;;;;;1.03;0.70;;;;;;;2.79;100.00;97493.78;6221592;28;20347;-52
2023/11/13 06:09:59;;;;;;;0.70;0.70;;;;;;;2.85;100.00;97497.44;6222120;28;20201;-53
2023/11/13 06:13:02;;;;;;;2.03;0.80;;;;;;;2.90;100.00;97487.13;6218907;28;20215;-50
2023/11/13 06:16:06;;;;;;;0.70;0.60;;;;;;;2.88;100.00;97478.63;6220135;28;20691;-51
2023/11/13 06:19:08;;;;;;;1.40;0.70;;;;;;;2.99;100.00;97485.16;6221111;28;20193;-50
2023/11/13 06:22:10;;;;;;;0.50;0.50;;;;;;;3.01;100.00;97472.63;6221849;28;20195;-47
2023/11/13 06:25:12;;;;;;;0.67;0.60;;;;;;;3.04;100.00;97493.25;6221510;28;20215;-52
2023/11/13 06:28:15;;;;;;;0.53;0.50;;;;;;;3.10;100.00;97492.44;6220537;28;20287;-49
2023/11/13 06:31:21;;;;;;;0.80;0.70;;;;;;;3.14;100.00;97491.06;6210260;28;20240;-49
2023/11/13 06:34:28;;;;;;;0.57;0.50;;;;;;;3.20;100.00;97492.91;6205997;28;20561;-53
2023/11/13 06:37:31;;;;;;;1.03;0.60;;;;;;;3.26;100.00;97486.84;6197938;28;20229;-49
2023/11/13 06:40:33;;;;;;;0.57;0.57;;;;;;;3.32;100.00;97486.03;6198402;28;20334;-50
2023/11/13 06:43:35;;;;;;;0.80;0.70;;;;;;;3.41;100.00;97493.75;6196970;28;20288;-51
2023/11/13 06:46:38;;;;;;;0.70;0.70;;;;;;;3.23;100.00;97453.00;6197263;28;20190;-52
2023/11/13 06:49:40;;;;;;;0.70;0.50;;;;;;;3.53;100.00;97492.94;6195444;28;20562;-49
2023/11/13 06:52:42;;;;;;;0.97;0.73;;;;;;;3.63;100.00;97508.34;6197432;28;20208;-49
2023/11/13 06:55:44;;;;;;;0.63;0.63;;;;;;;3.68;100.00;97494.56;6199961;28;20193;-47
2023/11/13 06:58:46;;;;;;;0.67;0.60;;;;;;;3.73;100.00;97490.31;6204412;28;20329;-52
2023/11/13 07:01:50;;;;;;;0.70;0.70;;;;;;;3.80;100.00;97493.78;6201316;28;20571;-51
2023/11/13 07:04:53;;;;;;;2.13;0.90;;;;;;;3.84;100.00;97494.16;6202838;28;20292;-48
2023/11/13 07:07:55;;;;;;;1.23;0.97;;;;;;;3.88;100.00;97501.47;6205214;28;20222;-49
2023/11/13 07:10:58;;;;;;;1.30;1.20;;;;;;;3.93;100.00;97498.22;6205450;28;20189;-51
2023/11/13 07:14:01;;;;;;;1.67;1.50;;;;;;;3.97;100.00;97496.78;6206851;28;20201;-52
2023/11/13 07:17:03;;;;;;;1.20;1.00;;;;;;;3.84;100.00;97463.38;6172137;28;20198;-53
2023/11/13 07:20:06;;;;;;;3.60;1.37;;;;;;;4.10;100.00;97490.72;6195283;28;20202;-52
2023/11/13 07:23:16;;;;;;;2.47;1.40;;;;;;;4.12;100.00;97486.84;6201640;28;20287;-49
2023/11/13 07:26:18;;;;;;;2.63;1.30;;;;;;;4.07;100.00;97473.47;6193562;28;20269;-52
2023/11/13 07:29:21;;;;;;;1.93;1.67;;;;;;;4.27;100.00;97489.25;6193356;28;20198;-51
2023/11/13 07:32:27;;;;;;;2.90;1.70;;;;;;;4.34;100.00;97487.41;6209012;28;20233;-52
2023/11/13 07:35:29;;;;;;;2.20;1.47;;;;;;;4.46;100.00;97489.41;6218039;28;20182;-49
2023/11/13 07:38:31;;;;;;;1.60;1.50;;;;;;;4.54;100.00;97499.75;6219487;28;20195;-50
2023/11/13 07:41:33;;;;;;;1.70;1.60;;;;;;;4.59;100.00;97492.81;6218544;28;20680;-52
2023/11/13 07:44:36;;;;;;;1.83;1.60;;;;;;;4.67;100.00;97489.13;6197292;28;20229;-50
2023/11/13 07:47:39;;;;;;;1.27;1.17;;;;;;;4.58;100.00;97464.00;6215832;28;20662;-51
2023/11/13 07:50:42;;;;;;;1.50;1.40;;;;;;;4.84;100.00;97507.97;6204160;28;20668;-54
2023/11/13 07:54:00;;;;;;;1.90;1.30;;;;;;;4.92;100.00;97508.50;6213206;28;20209;-52
2023/11/13 07:57:04;;;;;;;1.60;1.50;;;;;;;5.02;100.00;97513.34;6194471;28;20198;-52
2023/11/13 08:00:10;;;;;;;1.13;1.07;;;;;;;4.96;100.00;97492.25;6217543;28;20592;-51
2023/11/13 08:03:18;;;;;;;1.50;1.20;;;;;;;5.24;100.00;97513.84;6216182;28;20199;-50
2023/11/13 08:06:20;;;;;;;1.20;1.10;;;;;;;5.35;100.00;97513.19;6218044;28;20578;-52
2023/11/13 08:09:22;;;;;;;1.90;1.00;;;;;;;5.33;100.00;97494.09;6218759;28;20192;-53
2023/11/13 08:12:25;;;;;;;1.97;1.23;;;;;;;5.55;100.00;97506.97;6215337;28;20203;-52
2023/11/13 08:15:29;;;;;;;1.90;1.00;;;;;;;5.61;100.00;97506.09;6218280;28;20195;-52
2023/11/13 08:18:31;;;;;;;1.27;1.17;;;;;;;5.62;100.00;97513.03;6217868;28;20204;-50
2023/11/13 08:21:34;;;;;;;1.03;0.97;;;;;;;5.62;100.00;97494.53;6218081;28;20201;-50
2023/11/13 08:24:37;;;;;;;1.77;1.13;;;;;;;5.61;100.00;97483.13;6217737;28;20213;-53
2023/11/13 08:27:40;;;;;;;1.30;0.90;;;;;;;5.62;100.00;97490.03;6217786;28;20206;-49
2023/11/13 08:30:46;;;;;;;1.00;0.93;;;;;;;5.63;100.00;97488.22;6217311;28;20773;-51
2023/11/13 08:33:48;;;;;;;0.63;0.63;;;;;;;5.68;100.00;97498.94;6217188;28;20204;-49
2023/11/13 08:36:50;;;;;;;1.00;0.90;;;;;;;5.68;100.00;97504.22;6215235;28;20203;-50
2023/11/13 08:39:53;;;;;;;1.90;1.03;;;;;;;5.71;100.00;97495.84;6199617;28;20208;-52
2023/11/13 08:42:56;;;;;;;1.23;0.90;;;;;;;5.77;100.00;97497.66;6198212;28;20206;-52
2023/11/13 08:46:04;;;;;;;0.70;0.63;;;;;;;5.77;100.00;97495.03;6216370;28;20215;-49
2023/11/13 08:49:06;;;;;;;0.87;0.60;;;;;;;5.78;100.00;97504.56;6216524;28;20208;-48
2023/11/13 08:52:08;;;;;;;0.60;0.40;;;;;;;5.76;100.00;97503.94;6216953;28;20203;-50
2023/11/13 08:55:17;;;;;;;1.40;0.83;;;;;;;5.78;100.00;97501.91;6216380;28;20192;-50
2023/11/13 08:58:20;;;;;;;0.80;0.60;;;;;;;5.84;100.00;97506.34;6215558;28;20198;-52
2023/11/13 09:01:25;;;;;;;1.93;1.00;;;;;;;5.93;100.00;97502.44;6215354;28;20229;-51
2023/11/13 09:04:28;;;;;;;2.47;1.30;;;;;;;5.96;100.00;97517.06;6217006;28;20252;-49
2023/11/13 09:07:31;;;;;;;2.17;1.80;;;;;;;5.90;100.00;97509.94;6216616;28;20196;-52
2023/11/13 09:10:33;;;;;;;1.63;1.50;;;;;;;5.82;100.00;97502.31;6216261;28;20266;-51
2023/11/13 09:13:36;;;;;;;1.20;1.10;;;;;;;5.78;100.00;97514.31;6212658;28;20214;-49
2023/11/13 09:16:38;;;;;;;3.07;1.67;;;;;;;5.78;100.00;97507.19;6216096;28;20205;-52
2023/11/13 09:19:41;;;;;;;1.17;1.07;;;;;;;5.75;100.00;97506.81;6216641;28;20281;-50
2023/11/13 09:22:44;;;;;;;1.30;1.20;;;;;;;5.77;100.00;97505.59;6215257;28;20512;-50
2023/11/13 09:25:46;;;;;;;1.43;1.30;;;;;;;5.73;100.00;97509.69;6216967;28;20297;-50
2023/11/13 09:28:48;;;;;;;1.60;1.17;;;;;;;5.70;100.00;97502.16;6217095;28;20195;-50
2023/11/13 09:31:51;;;;;;;1.30;1.07;;;;;;;5.72;100.00;97502.78;6198168;28;20239;-51
2023/11/13 09:34:57;;;;;;;1.90;1.30;;;;;;;5.70;100.00;97504.81;6216955;28;20569;-53
2023/11/13 09:38:01;;;;;;;1.20;1.10;;;;;;;5.69;100.00;97506.66;6217146;28;20192;-50
2023/11/13 09:41:04;;;;;;;1.80;1.50;;;;;;;5.66;100.00;97508.91;6217291;28;20192;-50
2023/11/13 09:44:06;;;;;;;1.10;1.00;;;;;;;5.65;100.00;97504.66;6216371;28;20210;-51
2023/11/13 09:47:10;;;;;;;1.67;1.30;;;;;;;5.62;100.00;97507.75;6216631;28;20569;-52
2023/11/13 09:50:16;;;;;;;1.73;1.37;;;;;;;5.61;100.00;97500.81;6216712;28;20538;-48
2023/11/13 09:53:23;;;;;;;3.67;1.30;;;;;;;5.65;100.00;97494.06;6216207;28;20184;-51
2023/11/13 09:56:29;;;;;;;1.90;1.20;;;;;;;5.76;100.00;97503.13;6215179;28;20280;-49
2023/11/13 09:59:34;;;;;;;1.73;1.23;;;;;;;5.78;100.00;97509.03;6213723;28;20203;-50
2023/11/13 10:02:41;;;;;;;1.43;1.10;;;;;;;5.78;100.00;97493.19;6213272;28;20201;-47
2023/11/13 10:05:44;;;;;;;3.23;1.40;;;;;;;5.73;100.00;97498.31;6215732;28;20298;-49
2023/11/13 10:08:49;;;;;;;2.10;1.70;;;;;;;5.58;100.00;97485.41;6198317;28;20203;-48
2023/11/13 10:11:52;;;;;;;3.23;2.03;;;;;;;5.60;100.00;97499.19;6215540;28;20570;-48
2023/11/13 10:15:13;;;;;;;2.00;1.73;;;;;;;5.58;100.00;97496.78;6217507;28;20199;-47
2023/11/13 10:18:39;;;;;;;2.27;1.90;;;;;;;5.54;100.00;97476.28;6215296;28;20362;-47
2023/11/13 10:21:43;;;;;;;3.30;2.53;;;;;;;5.52;100.00;97480.97;6215047;28;20247;-50
2023/11/13 10:24:57;;;;;;;2.97;2.03;;;;;;;5.52;100.00;97468.59;6216199;28;20297;-50
2023/11/13 10:28:01;;;;;;;3.63;2.23;;;;;;;5.58;100.00;97470.34;6218750;28;20202;-52
2023/11/13 10:31:04;;;;;;;3.20;2.20;;;;;;;5.65;100.00;97475.59;6219412;28;20243;-54
2023/11/13 10:34:09;;;;;;;4.00;2.17;;;;;;;5.61;100.00;97469.09;6220461;28;20273;-47
2023/11/13 10:37:12;;;;;;;3.73;2.20;;;;;;;5.56;100.00;97479.50;6220479;28;20204;-50
2023/11/13 10:40:27;;;;;;;3.70;1.93;;;;;;;5.57;100.00;97474.03;6219062;28;20548;-49
2023/11/13 10:43:31;;;;;;;1.97;1.60;;;;;;;5.61;100.00;97469.91;6220330;28;20211;-50
2023/11/13 10:46:36;;;;;;;1.80;1.50;;;;;;;5.65;100.00;97465.81;6218158;28;20424;-47
2023/11/13 10:49:39;;;;;;;1.93;1.67;;;;;;;5.73;100.00;97463.94;6220028;28;20200;-48
2023/11/13 10:52:43;;;;;;;2.90;1.87;;;;;;;5.70;100.00;97457.25;6219322;28;20688;-49
2023/11/13 10:55:47;;;;;;;3.10;1.50;;;;;;;5.61;100.00;97448.78;6218833;28;20210;-49
2023/11/13 10:58:49;;;;;;;1.87;1.70;;;;;;;5.70;100.00;97457.25;6218458;28;20742;-48
2023/11/13 11:01:55;;;;;;;2.30;1.70;;;;;;;5.57;100.00;97425.66;6219214;28;20230;-48
2023/11/13 11:05:09;;;;;;;2.03;1.70;;;;;;;5.68;100.00;97435.53;6219597;28;20222;-47
2023/11/13 11:08:13;;;;;;;1.50;1.40;;;;;;;5.70;100.00;97452.75;6217885;28;20639;-49
2023/11/13 11:11:21;;;;;;;1.73;1.60;;;;;;;5.68;100.00;97446.09;6213668;28;20660;-48
2023/11/13 11:14:43;;;;;;;1.90;1.40;;;;;;;5.56;100.00;97435.41;6219158;28;20185;-48
2023/11/13 11:17:56;;;;;;;2.00;1.30;;;;;;;5.54;100.00;97429.53;6218763;28;20196;-50
2023/11/13 11:21:06;;;;;;;1.60;1.30;;;;;;;5.54;100.00;97436.66;6215660;28;20368;-47
2023/11/13 11:24:19;;;;;;;1.40;1.30;;;;;;;5.42;100.00;97426.78;6218230;28;20240;-49
2023/11/13 11:27:40;;;;;;;1.57;1.37;;;;;;;5.45;100.00;97422.88;6217029;28;20203;-51
2023/11/13 11:30:43;;;;;;;2.00;1.53;;;;;;;5.46;100.00;97426.34;6215950;28;20229;-49
2023/11/13 11:33:46;;;;;;;2.23;1.40;;;;;;;5.49;100.00;97421.44;6218570;28;20215;-48
2023/11/13 11:36:53;;;;;;;2.43;1.57;;;;;;;5.52;100.00;97421.03;6218630;28;20199;-51
2023/11/13 11:40:03;;;;;;;1.90;1.57;;;;;;;5.57;100.00;97415.09;6215766;28;20195;-49
2023/11/13 11:43:08;;;;;;;2.23;1.93;;;;;;;5.62;100.00;97407.31;6200003;28;20218;-50
2023/11/13 11:46:13;;;;;;;2.77;2.30;;;;;;;5.64;100.00;97408.72;6217646;28;20216;-46
2023/11/13 11:49:25;;;;;;;2.47;2.23;;;;;;;5.64;100.00;97403.44;6218481;28;20279;-48
2023/11/13 11:52:55;;;;;;;3.03;2.60;;;;;;;5.74;100.00;97402.13;6217833;28;20198;-49
2023/11/13 11:55:58;;;;;;;3.00;2.70;;;;;;;5.76;100.00;97387.66;6218193;28;20273;-50
2023/11/13 11:59:01;;;;;;;5.37;3.07;;;;;;;5.76;100.00;97376.28;6217663;28;20203;-49
2023/11/13 12:02:03;;;;;;;2.80;2.60;;;;;;;5.86;100.00;97381.88;6210597;28;20687;-50
2023/11/13 12:05:07;;;;;;;3.07;2.70;;;;;;;5.42;100.00;97297.34;6211408;28;20612;-49
2023/11/13 12:08:11;;;;;;;4.37;2.90;;;;;;;5.99;100.00;97380.97;6217806;28;20200;-51
2023/11/13 12:11:18;;;;;;;4.43;2.53;;;;;;;6.02;100.00;97360.19;6215983;28;20177;-50
2023/11/13 12:14:21;;;;;;;3.20;2.43;;;;;;;6.06;100.00;97350.78;6208921;28;20754;-52
2023/11/13 12:17:23;;;;;;;3.47;2.63;;;;;;;6.13;100.00;97356.00;6217906;28;20235;-49
2023/11/13 12:20:27;;;;;;;3.60;2.83;;;;;;;6.16;100.00;97343.16;6217932;28;20656;-53
2023/11/13 12:23:31;;;;;;;3.20;2.60;;;;;;;6.24;100.00;97342.03;6216774;28;20199;-53
2023/11/13 12:26:33;;;;;;;2.93;2.57;;;;;;;6.32;100.00;97344.38;6218015;28;20219;-53
2023/11/13 12:29:36;;;;;;;3.23;2.63;;;;;;;6.42;100.00;97349.94;6217453;28;20943;-50
2023/11/13 12:32:39;;;;;;;3.37;2.93;;;;;;;6.36;100.00;97315.63;6217613;28;20238;-52
2023/11/13 12:35:42;;;;;;;3.67;3.00;;;;;;;6.66;100.00;97345.56;6216700;28;20200;-50
2023/11/13 12:38:46;;;;;;;3.83;3.03;;;;;;;6.77;100.00;97343.97;6214664;28;20320;-50
2023/11/13 12:41:52;;;;;;;3.07;2.77;;;;;;;6.83;100.00;97345.72;6217809;28;20204;-51
2023/11/13 12:44:55;;;;;;;3.23;2.93;;;;;;;6.76;100.00;97325.69;6215924;28;20227;-52
2023/11/13 12:48:13;;;;;;;2.67;2.47;;;;;;;6.93;100.00;97338.03;6219733;28;20565;-54
2023/11/13 12:51:16;;;;;;;3.43;3.13;;;;;;;6.87;100.00;97333.66;6216636;28;20204;-51
2023/11/13 12:54:18;;;;;;;4.43;3.10;;;;;;;6.76;100.00;97331.78;6215205;28;20202;-50
2023/11/13 12:57:26;;;;;;;3.90;3.50;;;;;;;6.74;100.00;97333.81;6215832;28;20192;-53
2023/11/13 13:00:30;;;;;;;3.67;3.30;;;;;;;6.70;100.00;97324.75;6216884;28;20200;-49
2023/11/13 13:03:32;;;;;;;3.47;3.00;;;;;;;6.73;100.00;97321.63;6216206;28;20299;-51
2023/11/13 13:06:39;;;;;;;3.80;3.50;;;;;;;6.68;100.00;97318.84;6216714;28;20656;-48
2023/11/13 13:09:41;;;;;;;4.67;3.90;;;;;;;6.70;100.00;97325.56;6198879;28;20221;-48
2023/11/13 13:12:45;;;;;;;3.40;3.10;;;;;;;6.68;100.00;97319.66;6196412;28;20209;-49
2023/11/13 13:15:50;;;;;;;4.30;3.50;;;;;;;6.75;100.00;97329.34;6215334;28;20204;-48
2023/11/13 13:18:52;;;;;;;3.33;3.03;;;;;;;6.78;100.00;97321.75;6216401;28;20738;-49
2023/11/13 13:21:54;;;;;;;4.17;3.20;;;;;;;6.80;100.00;97321.53;6215948;28;20205;-49
2023/11/13 13:24:56;;;;;;;4.20;3.27;;;;;;;6.83;100.00;97321.09;6215959;28;20570;-50
2023/11/13 13:28:00;;;;;;;4.30;3.70;;;;;;;6.83;100.00;97327.19;6216287;28;20192;-52
2023/11/13 13:31:02;;;;;;;3.70;3.23;;;;;;;6.83;100.00;97318.44;6216444;28;20236;-48
2023/11/13 13:34:05;;;;;;;4.50;4.00;;;;;;;6.65;100.00;97284.88;6200046;28;20198;-50
2023/11/13 13:37:07;;;;;;;3.73;3.33;;;;;;;6.88;100.00;97305.31;6216373;28;20634;-48
2023/11/13 13:40:10;;;;;;;5.63;3.80;;;;;;;6.90;100.00;97306.72;6216700;28;20188;-49
2023/11/13 13:43:13;;;;;;;3.73;3.43;;;;;;;6.92;100.00;97302.00;6218082;28;20204;-48
2023/11/13 13:47:12;;;;;;;4.80;3.30;;;;;;;6.92;100.00;97294.06;6218614;28;20211;-52
2023/11/13 13:50:17;;;;;;;3.70;3.40;;;;;;;6.93;100.00;97303.59;6215836;28;20243;-52
2023/11/13 13:53:26;;;;;;;3.90;3.07;;;;;;;6.95;100.00;97295.44;6215150;28;20207;-49
2023/11/13 13:56:32;;;;;;;3.53;3.23;;;;;;;6.95;100.00;97288.31;6217270;28;20205;-47
2023/11/13 13:59:36;;;;;;;3.43;3.13;;;;;;;6.97;100.00;97283.59;6213743;28;20185;-51
2023/11/13 14:02:38;;;;;;;3.73;3.30;;;;;;;7.01;100.00;97283.94;6218220;28;20252;-48
2023/11/13 14:05:42;;;;;;;4.33;3.63;;;;;;;7.03;100.00;97273.09;6221046;28;20220;-49
2023/11/13 14:08:47;;;;;;;3.30;3.00;;;;;;;7.05;100.00;97285.09;6219285;28;20202;-51
2023/11/13 14:11:49;;;;;;;3.40;3.10;;;;;;;7.07;100.00;97287.50;6219705;28;20196;-48
2023/11/13 14:14:51;;;;;;;2.57;2.37;;;;;;;7.06;100.00;97276.13;6202991;28;20196;-49
2023/11/13 14:17:54;;;;;;;3.17;2.87;;;;;;;7.07;100.00;97283.03;6221198;28;20220;-51
2023/11/13 14:20:57;;;;;;;2.90;2.57;;;;;;;7.09;100.00;97282.78;6219588;28;20211;-50
2023/11/13 14:24:03;;;;;;;2.83;2.57;;;;;;;7.08;100.00;97287.28;6220970;28;20196;-49